createdAt,value
2023-06-07T00:02:26.371Z,7.68
2023-06-07T00:05:00.755Z,5.72
2023-06-07T00:07:28.093Z,5.82
2023-06-07T00:09:55.453Z,6.07
2023-06-07T00:12:22.744Z,5.70
2023-06-07T00:14:50.037Z,5.47
2023-06-07T00:17:17.355Z,5.70
2023-06-07T00:19:44.688Z,6.43
2023-06-07T00:22:14.074Z,5.80
2023-06-07T00:24:41.502Z,5.95
2023-06-07T00:27:08.771Z,5.68
2023-06-07T00:29:37.499Z,6.20
2023-06-07T00:32:04.795Z,5.88
2023-06-07T00:34:32.179Z,6.15
2023-06-07T00:36:59.953Z,5.53
2023-06-07T00:39:27.281Z,5.45
2023-06-07T00:41:54.569Z,5.85
2023-06-07T00:44:22.021Z,5.53
2023-06-07T00:46:49.316Z,5.70
2023-06-07T00:49:17.805Z,6.88
2023-06-07T00:51:45.242Z,6.15
2023-06-07T00:54:13.970Z,6.20
2023-06-07T00:56:43.270Z,6.57
2023-06-07T00:59:10.679Z,5.82
2023-06-07T01:01:37.957Z,6.40
2023-06-07T01:04:07.067Z,7.38
2023-06-07T01:06:34.578Z,6.30
2023-06-07T01:09:02.998Z,6.95
2023-06-07T01:11:30.418Z,5.53
2023-06-07T01:13:57.787Z,5.50
2023-06-07T01:16:25.076Z,5.72
2023-06-07T01:18:52.545Z,5.63
2023-06-07T01:21:20.872Z,5.70
2023-06-07T01:23:49.446Z,5.75
2023-06-07T01:26:17.340Z,6.57
2023-06-07T01:28:46.406Z,5.07
2023-06-07T01:31:13.746Z,6.28
2023-06-07T01:33:41.030Z,6.22
2023-06-07T01:36:08.312Z,5.88
2023-06-07T01:38:35.682Z,5.72
2023-06-07T01:41:02.953Z,6.05
2023-06-07T01:43:30.528Z,5.43
2023-06-07T01:45:57.952Z,6.32
2023-06-07T01:48:26.616Z,6.18
2023-06-07T01:50:53.906Z,5.95
2023-06-07T01:53:21.465Z,5.60
2023-06-07T01:55:48.722Z,5.10
2023-06-07T01:58:16.201Z,5.45
2023-06-07T02:00:43.599Z,6.38
2023-06-07T02:03:11.051Z,6.03
2023-06-07T02:05:38.412Z,5.95
2023-06-07T02:08:05.816Z,5.57
2023-06-07T02:10:35.540Z,6.32
2023-06-07T02:13:03.721Z,5.68
2023-06-07T02:15:31.047Z,6.10
2023-06-07T02:18:02.697Z,5.45
2023-06-07T02:20:30.511Z,5.40
2023-06-07T02:22:57.765Z,5.65
2023-06-07T02:25:25.184Z,6.28
2023-06-07T02:27:52.539Z,6.25
2023-06-07T02:30:20.839Z,5.95
2023-06-07T02:32:51.784Z,7.97
2023-06-07T02:35:19.333Z,5.95
2023-06-07T02:37:46.858Z,6.95
2023-06-07T02:40:14.456Z,6.13
2023-06-07T02:42:41.837Z,6.10
2023-06-07T02:45:09.190Z,6.60
2023-06-07T02:47:37.718Z,6.38
2023-06-07T02:50:05.431Z,6.72
2023-06-07T02:52:32.996Z,6.75
2023-06-07T02:55:00.347Z,6.47
2023-06-07T02:57:27.703Z,5.95
2023-06-07T02:59:55.064Z,6.40
2023-06-07T03:02:27.313Z,5.90
2023-06-07T03:04:57.578Z,6.38
2023-06-07T03:07:28.280Z,5.88
2023-06-07T03:09:55.784Z,5.90
2023-06-07T03:12:23.836Z,6.75
2023-06-07T03:14:55.941Z,6.82
2023-06-07T03:17:23.595Z,5.55
2023-06-07T03:19:55.274Z,6.93
2023-06-07T03:22:22.872Z,7.43
2023-06-07T03:24:53.224Z,6.43
2023-06-07T03:27:25.320Z,5.72
2023-06-07T03:29:58.610Z,6.57
2023-06-07T03:32:26.162Z,5.85
2023-06-07T03:34:54.594Z,6.72
2023-06-07T03:37:22.345Z,5.68
2023-06-07T03:39:49.802Z,6.53
2023-06-07T03:42:17.371Z,6.32
2023-06-07T03:44:44.666Z,5.70
2023-06-07T03:47:12.176Z,7.32
2023-06-07T03:49:40.045Z,7.05
2023-06-07T03:52:07.805Z,7.00
2023-06-07T03:54:36.036Z,7.47
2023-06-07T03:57:04.278Z,6.88
2023-06-07T03:59:32.502Z,6.88
2023-06-07T04:02:01.678Z,7.03
2023-06-07T04:04:29.272Z,6.40
2023-06-07T04:06:59.465Z,6.32
2023-06-07T04:09:26.803Z,7.30
2023-06-07T04:11:54.061Z,7.35
2023-06-07T04:14:21.921Z,6.45
2023-06-07T04:16:49.241Z,6.53
2023-06-07T04:19:17.610Z,6.25
2023-06-07T04:21:46.897Z,6.43
2023-06-07T04:24:16.810Z,7.15
2023-06-07T04:26:45.975Z,6.35
2023-06-07T04:29:16.044Z,6.93
2023-06-07T04:31:43.935Z,6.47
2023-06-07T04:34:14.555Z,6.78
2023-06-07T04:36:42.076Z,6.28
2023-06-07T04:39:15.581Z,6.57
2023-06-07T04:41:46.583Z,6.93
2023-06-07T04:44:29.757Z,7.05
2023-06-07T04:47:08.357Z,6.50
2023-06-07T04:49:40.071Z,6.25
2023-06-07T04:52:07.624Z,6.78
2023-06-07T04:54:37.924Z,6.50
2023-06-07T04:57:10.547Z,6.32
2023-06-07T04:59:44.005Z,6.25
2023-06-07T05:02:17.615Z,6.78
2023-06-07T05:04:45.580Z,7.03
2023-06-07T05:07:15.094Z,7.30
2023-06-07T05:09:46.951Z,6.85
2023-06-07T05:12:14.990Z,6.90
2023-06-07T05:14:42.310Z,6.30
2023-06-07T05:17:09.722Z,7.28
2023-06-07T05:19:37.493Z,8.10
2023-06-07T05:22:04.833Z,7.45
2023-06-07T05:24:34.744Z,5.70
2023-06-07T05:27:03.176Z,6.57
2023-06-07T05:29:30.442Z,5.75
2023-06-07T05:31:57.908Z,5.82
2023-06-07T05:34:25.308Z,5.50
2023-06-07T05:36:52.820Z,6.13
2023-06-07T05:39:20.330Z,6.45
2023-06-07T05:41:47.671Z,5.72
2023-06-07T05:44:15.638Z,7.60
2023-06-07T05:46:42.967Z,6.43
2023-06-07T05:49:10.304Z,6.35
2023-06-07T05:51:38.061Z,5.40
2023-06-07T05:54:05.388Z,5.47
2023-06-07T05:56:36.003Z,6.05
2023-06-07T05:59:03.396Z,6.60
2023-06-07T06:01:30.839Z,5.93
2023-06-07T06:03:58.153Z,5.85
2023-06-07T06:06:25.509Z,6.22
2023-06-07T06:08:52.843Z,7.45
2023-06-07T06:11:20.251Z,5.45
2023-06-07T06:13:49.729Z,5.07
2023-06-07T06:16:17.046Z,5.82
2023-06-07T06:18:44.372Z,5.53
2023-06-07T06:21:11.620Z,4.90
2023-06-07T06:23:39.410Z,4.88
2023-06-07T06:26:07.084Z,5.32
2023-06-07T06:28:34.396Z,5.47
2023-06-07T06:31:02.652Z,5.88
2023-06-07T06:33:30.117Z,5.55
2023-06-07T06:35:57.607Z,5.00
2023-06-07T06:38:24.920Z,5.38
2023-06-07T06:40:52.159Z,5.28
2023-06-07T06:43:19.686Z,4.85
2023-06-07T06:45:50.511Z,4.97
2023-06-07T06:48:17.873Z,5.43
2023-06-07T06:50:48.061Z,5.13
2023-06-07T06:53:15.641Z,6.65
2023-06-07T06:55:43.083Z,5.25
2023-06-07T06:58:10.422Z,6.30
2023-06-07T07:00:38.232Z,6.13
2023-06-07T07:03:05.853Z,5.32
2023-06-07T07:05:33.199Z,4.93
2023-06-07T07:08:00.920Z,5.93
2023-06-07T07:10:28.241Z,5.07
2023-06-07T07:12:55.586Z,5.60
2023-06-07T07:15:22.994Z,5.43
2023-06-07T07:17:50.670Z,5.22
2023-06-07T07:20:18.166Z,6.15
2023-06-07T07:22:47.667Z,5.32
2023-06-07T07:25:15.283Z,5.72
2023-06-07T07:27:42.931Z,6.82
2023-06-07T07:30:10.971Z,5.10
2023-06-07T07:32:38.953Z,4.90
2023-06-07T07:35:06.345Z,4.90
2023-06-07T07:37:33.895Z,5.70
2023-06-07T07:40:01.292Z,5.50
2023-06-07T07:42:28.602Z,6.07
2023-06-07T07:44:55.965Z,5.50
2023-06-07T07:47:23.658Z,5.28
2023-06-07T07:49:53.196Z,5.57
2023-06-07T07:52:22.601Z,5.47
2023-06-07T07:54:50.074Z,6.07
2023-06-07T07:57:17.373Z,5.13
2023-06-07T07:59:44.713Z,5.70
2023-06-07T08:02:12.701Z,5.53
2023-06-07T08:04:40.198Z,4.80
2023-06-07T08:07:07.551Z,5.72
2023-06-07T08:09:34.851Z,5.45
2023-06-07T08:12:02.332Z,5.30
2023-06-07T08:14:29.562Z,5.00
2023-06-07T08:16:56.863Z,5.55
2023-06-07T08:19:24.207Z,5.55
2023-06-07T08:21:51.986Z,6.88
2023-06-07T08:24:20.040Z,6.60
2023-06-07T08:26:48.291Z,6.03
2023-06-07T08:29:15.552Z,5.60
2023-06-07T08:31:44.676Z,5.65
2023-06-07T08:34:12.416Z,5.80
2023-06-07T08:36:40.856Z,6.60
2023-06-07T08:39:09.147Z,5.43
2023-06-07T08:41:36.541Z,4.78
2023-06-07T08:44:03.875Z,5.25
2023-06-07T08:46:32.680Z,4.97
2023-06-07T08:49:00.681Z,5.07
2023-06-07T08:51:28.220Z,6.35
2023-06-07T08:53:55.820Z,5.78
2023-06-07T08:56:23.874Z,5.43
2023-06-07T08:58:51.554Z,5.40
2023-06-07T09:01:19.097Z,5.93
2023-06-07T09:03:47.000Z,5.80
2023-06-07T09:06:14.833Z,5.70
2023-06-07T09:08:42.172Z,5.15
2023-06-07T09:11:09.565Z,5.20
2023-06-07T09:13:37.811Z,7.30
2023-06-07T09:16:05.474Z,5.80
2023-06-07T09:18:32.871Z,5.18
2023-06-07T09:21:00.133Z,5.22
2023-06-07T09:23:27.483Z,5.47
2023-06-07T09:25:55.061Z,5.90
2023-06-07T09:28:22.519Z,4.53
2023-06-07T09:30:49.776Z,5.13
2023-06-07T09:33:17.656Z,5.00
2023-06-07T09:35:45.056Z,6.18
2023-06-07T09:38:12.345Z,4.93
2023-06-07T09:40:39.775Z,5.00
2023-06-07T09:43:07.035Z,5.70
2023-06-07T09:45:34.331Z,5.13
2023-06-07T09:48:02.717Z,5.80
2023-06-07T09:50:30.768Z,4.82
2023-06-07T09:52:58.474Z,5.47
2023-06-07T09:55:26.602Z,5.95
2023-06-07T09:57:53.944Z,5.65
2023-06-07T10:00:22.098Z,4.88
2023-06-07T10:02:49.663Z,4.45
2023-06-07T10:05:17.319Z,5.22
2023-06-07T10:07:44.805Z,5.72
2023-06-07T10:10:13.034Z,5.88
2023-06-07T10:12:41.503Z,5.32
2023-06-07T10:15:08.870Z,6.07
2023-06-07T10:17:36.365Z,5.07
2023-06-07T10:20:05.670Z,4.63
2023-06-07T10:22:33.352Z,5.97
2023-06-07T10:25:01.063Z,5.80
2023-06-07T10:27:28.576Z,4.63
2023-06-07T10:29:56.968Z,5.13
2023-06-07T10:32:25.764Z,4.82
2023-06-07T10:34:54.362Z,6.47
2023-06-07T10:37:21.605Z,4.30
2023-06-07T10:39:50.122Z,7.28
2023-06-07T10:42:17.509Z,4.90
2023-06-07T10:44:44.787Z,5.18
2023-06-07T10:47:12.398Z,4.65
2023-06-07T10:49:42.176Z,5.53
2023-06-07T10:52:13.074Z,5.68
2023-06-07T10:54:40.584Z,4.35
2023-06-07T10:57:07.902Z,5.50
2023-06-07T10:59:35.369Z,4.55
2023-06-07T11:02:02.762Z,5.45
2023-06-07T11:04:30.430Z,5.15
2023-06-07T11:06:57.868Z,4.43
2023-06-07T11:09:32.325Z,4.22
2023-06-07T11:11:59.688Z,4.22
2023-06-07T11:14:27.699Z,4.47
2023-06-07T11:16:55.092Z,4.75
2023-06-07T11:19:22.500Z,3.90
2023-06-07T11:21:49.802Z,4.72
2023-06-07T11:24:17.213Z,4.90
2023-06-07T11:26:45.138Z,4.57
2023-06-07T11:29:12.544Z,4.53
2023-06-07T11:31:39.941Z,4.68
2023-06-07T11:34:07.279Z,4.68
2023-06-07T11:36:34.663Z,6.07
2023-06-07T11:39:06.856Z,3.70
2023-06-07T11:41:34.260Z,5.55
2023-06-07T11:44:03.037Z,5.65
2023-06-07T11:46:30.440Z,4.60
2023-06-07T11:48:57.919Z,4.63
2023-06-07T11:51:25.331Z,4.97
2023-06-07T11:53:52.525Z,5.63
2023-06-07T11:56:19.985Z,4.70
2023-06-07T11:58:47.313Z,4.90
2023-06-07T12:01:17.678Z,4.30
2023-06-07T12:03:45.457Z,4.40
2023-06-07T12:06:13.142Z,4.60
2023-06-07T12:08:40.619Z,4.90
2023-06-07T12:11:07.977Z,4.43
2023-06-07T12:13:35.510Z,4.75
2023-06-07T12:16:02.921Z,4.93
2023-06-07T12:18:30.355Z,5.40
2023-06-07T12:20:57.648Z,4.85
2023-06-07T12:23:25.246Z,4.35
2023-06-07T12:25:54.288Z,4.00
2023-06-07T12:28:21.690Z,4.38
2023-06-07T12:30:49.000Z,4.40
2023-06-07T12:33:16.684Z,4.55
2023-06-07T12:35:43.966Z,5.53
2023-06-07T12:38:11.269Z,7.22
2023-06-07T12:40:38.669Z,5.03
2023-06-07T12:43:06.391Z,4.18
2023-06-07T12:45:33.999Z,4.70
2023-06-07T12:48:02.397Z,4.32
2023-06-07T12:50:31.579Z,4.75
2023-06-07T12:52:58.893Z,3.95
2023-06-07T12:55:26.416Z,4.13
2023-06-07T12:57:53.878Z,4.47
2023-06-07T13:00:21.386Z,4.65
2023-06-07T13:02:49.385Z,5.00
2023-06-07T13:05:16.909Z,4.38
2023-06-07T13:07:44.921Z,4.10
2023-06-07T13:10:12.218Z,4.80
2023-06-07T13:12:40.253Z,4.38
2023-06-07T13:15:07.568Z,4.57
2023-06-07T13:17:35.625Z,4.78
2023-06-07T13:20:03.630Z,4.75
2023-06-07T13:22:33.071Z,4.65
2023-06-07T13:25:00.592Z,3.97
2023-06-07T13:27:28.748Z,4.30
2023-06-07T13:29:56.764Z,4.57
2023-06-07T13:32:24.357Z,4.60
2023-06-07T13:34:51.747Z,4.78
2023-06-07T13:37:19.716Z,4.03
2023-06-07T13:39:48.118Z,3.92
2023-06-07T13:42:15.467Z,4.05
2023-06-07T13:44:44.103Z,3.38
2023-06-07T13:47:11.524Z,4.28
2023-06-07T13:49:38.892Z,4.30
2023-06-07T13:52:06.958Z,4.38
2023-06-07T13:54:35.424Z,3.95
2023-06-07T13:57:02.828Z,3.63
2023-06-07T13:59:30.877Z,4.13
2023-06-07T14:01:58.379Z,4.38
2023-06-07T14:04:26.109Z,4.03
2023-06-07T14:06:53.633Z,3.60
2023-06-07T14:09:23.476Z,5.25
2023-06-07T14:11:51.012Z,3.60
2023-06-07T14:14:21.964Z,3.60
2023-06-07T14:16:50.817Z,4.07
2023-06-07T14:19:18.411Z,4.13
2023-06-07T14:21:46.429Z,3.28
2023-06-07T14:24:14.112Z,3.78
2023-06-07T14:26:41.820Z,5.53
2023-06-07T14:29:09.307Z,3.83
2023-06-07T14:31:36.772Z,3.88
2023-06-07T14:34:04.573Z,3.72
2023-06-07T14:36:31.904Z,3.70
2023-06-07T14:39:01.213Z,3.35
2023-06-07T14:41:28.658Z,3.30
2023-06-07T14:43:56.209Z,3.53
2023-06-07T14:46:23.843Z,3.10
2023-06-07T14:48:51.632Z,3.33
2023-06-07T14:51:24.368Z,3.53
2023-06-07T14:53:54.319Z,3.35
2023-06-07T14:56:21.927Z,3.33
2023-06-07T14:58:49.322Z,3.78
2023-06-07T15:01:18.378Z,3.40
2023-06-07T15:03:45.924Z,3.63
2023-06-07T15:06:13.472Z,3.30
2023-06-07T15:08:40.942Z,2.95
2023-06-07T15:11:08.349Z,4.90
2023-06-07T15:13:35.733Z,4.28
2023-06-07T15:16:03.087Z,3.95
2023-06-07T15:18:30.521Z,3.10
2023-06-07T15:20:57.911Z,3.08
2023-06-07T15:23:25.633Z,4.43
2023-06-07T15:25:53.002Z,3.40
2023-06-07T15:28:20.405Z,3.97
2023-06-07T15:30:47.686Z,3.47
2023-06-07T15:33:15.108Z,4.20
2023-06-07T15:35:42.450Z,3.80
2023-06-07T15:38:09.838Z,2.72
2023-06-07T15:40:37.142Z,3.17
2023-06-07T15:43:04.455Z,3.20
2023-06-07T15:45:32.027Z,3.13
2023-06-07T15:48:00.312Z,3.38
2023-06-07T15:50:27.748Z,3.50
2023-06-07T15:52:55.133Z,3.53
2023-06-07T15:55:24.628Z,3.28
2023-06-07T15:57:51.887Z,2.90
2023-06-07T16:00:32.742Z,2.80
2023-06-07T16:03:04.950Z,3.55
2023-06-07T16:05:32.367Z,2.50
2023-06-07T16:08:04.672Z,3.10
2023-06-07T16:10:34.831Z,3.47
2023-06-07T16:13:02.094Z,3.95
2023-06-07T16:15:29.437Z,3.20
2023-06-07T16:17:56.897Z,3.15
2023-06-07T16:20:24.414Z,4.05
2023-06-07T16:22:52.075Z,3.92
2023-06-07T16:25:19.949Z,5.00
2023-06-07T16:27:47.211Z,3.38
2023-06-07T16:30:14.585Z,3.75
2023-06-07T16:32:41.984Z,3.00
2023-06-07T16:35:09.884Z,3.10
2023-06-07T16:37:37.253Z,4.93
2023-06-07T16:40:04.766Z,4.10
2023-06-07T16:42:32.477Z,3.03
2023-06-07T16:45:00.413Z,3.35
2023-06-07T16:47:27.822Z,3.22
2023-06-07T16:49:55.238Z,3.25
2023-06-07T16:52:22.648Z,3.70
2023-06-07T16:54:50.051Z,2.92
2023-06-07T16:57:17.310Z,3.45
2023-06-07T16:59:44.711Z,3.30
2023-06-07T17:02:12.510Z,3.67
2023-06-07T17:04:41.238Z,3.10
2023-06-07T17:07:08.514Z,3.58
2023-06-07T17:09:35.886Z,3.67
2023-06-07T17:12:03.176Z,3.05
2023-06-07T17:14:30.475Z,2.92
2023-06-07T17:16:57.792Z,3.22
2023-06-07T17:19:25.171Z,3.17
2023-06-07T17:21:52.405Z,2.95
2023-06-07T17:24:21.056Z,3.75
2023-06-07T17:26:48.577Z,3.25
2023-06-07T17:29:28.833Z,3.30
2023-06-07T17:31:57.581Z,3.25
2023-06-07T17:34:24.880Z,4.47
2023-06-07T17:36:52.293Z,3.60
2023-06-07T17:39:21.139Z,4.22
2023-06-07T17:41:48.457Z,4.13
2023-06-07T17:44:15.775Z,3.72
2023-06-07T17:46:44.352Z,4.40
2023-06-07T17:49:11.610Z,3.80
2023-06-07T17:51:42.564Z,3.50
2023-06-07T17:54:10.012Z,4.28
2023-06-07T17:56:37.286Z,4.18
2023-06-07T17:59:04.619Z,3.75
2023-06-07T18:01:32.061Z,3.78
2023-06-07T18:03:59.602Z,4.03
2023-06-07T18:06:26.949Z,3.70
2023-06-07T18:08:54.363Z,3.92
2023-06-07T18:11:21.759Z,4.03
2023-06-07T18:13:49.106Z,3.88
2023-06-07T18:16:16.660Z,4.10
2023-06-07T18:18:44.084Z,4.20
2023-06-07T18:21:13.912Z,4.30
2023-06-07T18:23:41.574Z,4.20
2023-06-07T18:26:09.009Z,4.22
2023-06-07T18:28:37.819Z,5.10
2023-06-07T18:31:05.243Z,4.00
2023-06-07T18:33:32.624Z,4.00
2023-06-07T18:36:00.198Z,4.22
2023-06-07T18:38:27.601Z,4.05
2023-06-07T18:40:54.972Z,3.95
2023-06-07T18:43:22.340Z,4.28
2023-06-07T18:45:49.835Z,4.47
2023-06-07T18:48:18.849Z,3.80
2023-06-07T18:50:46.287Z,3.90
2023-06-07T18:53:13.711Z,4.05
2023-06-07T18:55:41.139Z,4.40
2023-06-07T18:58:09.370Z,4.35
2023-06-07T19:00:37.984Z,4.97
2023-06-07T19:03:05.634Z,3.97
2023-06-07T19:05:33.131Z,3.85
2023-06-07T19:08:00.493Z,4.35
2023-06-07T19:10:27.836Z,4.03
2023-06-07T19:12:55.167Z,4.30
2023-06-07T19:15:22.759Z,3.88
2023-06-07T19:17:50.266Z,5.65
2023-06-07T19:20:18.907Z,4.97
2023-06-07T19:22:46.318Z,4.32
2023-06-07T19:25:14.792Z,4.25
2023-06-07T19:27:42.135Z,4.80
2023-06-07T19:30:09.496Z,4.50
2023-06-07T19:32:36.798Z,4.47
2023-06-07T19:35:05.152Z,4.50
2023-06-07T19:37:33.947Z,4.82
2023-06-07T19:40:01.398Z,4.85
2023-06-07T19:42:29.080Z,5.20
2023-06-07T19:44:56.376Z,5.47
2023-06-07T19:47:23.781Z,4.20
2023-06-07T19:49:51.806Z,6.15
2023-06-07T19:52:19.162Z,5.05
2023-06-07T19:54:46.467Z,5.35
2023-06-07T19:57:13.745Z,5.18
2023-06-07T19:59:41.305Z,5.35
2023-06-07T20:02:08.722Z,5.82
2023-06-07T20:04:36.203Z,5.30
2023-06-07T20:07:05.321Z,6.25
2023-06-07T20:09:32.949Z,6.25
2023-06-07T20:12:03.618Z,5.53
2023-06-07T20:14:31.284Z,6.90
2023-06-07T20:16:58.679Z,5.88
2023-06-07T20:19:26.348Z,5.57
2023-06-07T20:21:55.402Z,5.65
2023-06-07T20:24:22.832Z,7.18
2023-06-07T20:26:50.126Z,8.00
2023-06-07T20:29:19.080Z,6.05
2023-06-07T20:31:46.598Z,6.85
2023-06-07T20:34:15.630Z,6.47
2023-06-07T20:36:42.890Z,6.22
2023-06-07T20:39:10.218Z,7.47
2023-06-07T20:41:37.555Z,6.40
2023-06-07T20:44:05.090Z,5.82
2023-06-07T20:46:32.608Z,5.65
2023-06-07T20:49:00.014Z,5.53
2023-06-07T20:51:27.283Z,5.20
2023-06-07T20:53:54.634Z,5.22
2023-06-07T20:56:22.725Z,6.00
2023-06-07T20:58:50.025Z,6.43
2023-06-07T21:01:17.343Z,6.05
2023-06-07T21:03:47.972Z,6.35
2023-06-07T21:06:17.906Z,6.20
2023-06-07T21:08:45.211Z,6.20
2023-06-07T21:11:12.578Z,5.65
2023-06-07T21:13:40.432Z,6.32
2023-06-07T21:16:08.013Z,6.35
2023-06-07T21:18:35.570Z,6.15
2023-06-07T21:21:02.948Z,6.43
2023-06-07T21:23:30.261Z,6.20
2023-06-07T21:25:58.168Z,6.80
2023-06-07T21:28:25.453Z,7.55
2023-06-07T21:30:52.764Z,5.90
2023-06-07T21:33:20.106Z,5.35
2023-06-07T21:35:47.458Z,5.97
2023-06-07T21:38:14.831Z,6.53
2023-06-07T21:40:42.193Z,6.50
2023-06-07T21:43:09.514Z,6.35
2023-06-07T21:45:36.960Z,6.53
2023-06-07T21:48:04.385Z,6.38
2023-06-07T21:50:31.724Z,8.13
2023-06-07T21:52:59.198Z,7.15
2023-06-07T21:55:26.465Z,9.48
2023-06-07T21:57:53.786Z,10.20
2023-06-07T22:00:22.436Z,10.48
2023-06-07T22:02:49.938Z,9.18
2023-06-07T22:05:18.703Z,11.73
2023-06-07T22:07:46.119Z,10.18
2023-06-07T22:10:13.517Z,10.65
2023-06-07T22:12:41.912Z,9.60
2023-06-07T22:15:09.448Z,8.02
2023-06-07T22:17:37.936Z,9.05
2023-06-07T22:20:06.827Z,8.43
2023-06-07T22:22:34.938Z,7.20
2023-06-07T22:25:02.739Z,6.72
2023-06-07T22:27:30.237Z,6.25
2023-06-07T22:29:58.727Z,5.53
2023-06-07T22:32:29.825Z,6.32
2023-06-07T22:35:04.651Z,9.05
2023-06-07T22:37:33.117Z,5.32
2023-06-07T22:40:00.913Z,4.45
2023-06-07T22:42:28.261Z,5.28
2023-06-07T22:44:56.059Z,5.50
2023-06-07T22:47:25.110Z,5.65
2023-06-07T22:49:52.800Z,5.32
2023-06-07T22:52:24.602Z,5.28
2023-06-07T22:54:52.049Z,4.88
2023-06-07T22:57:19.416Z,5.97
2023-06-07T22:59:46.825Z,5.45
2023-06-07T23:02:14.193Z,5.82
2023-06-07T23:04:41.540Z,5.07
2023-06-07T23:07:10.193Z,5.70
2023-06-07T23:09:37.496Z,5.88
2023-06-07T23:12:06.081Z,5.65
2023-06-07T23:14:33.404Z,4.88
2023-06-07T23:17:00.786Z,5.30
2023-06-07T23:19:28.262Z,5.82
2023-06-07T23:21:57.783Z,6.22
2023-06-07T23:24:26.650Z,6.45
2023-06-07T23:27:02.774Z,5.90
2023-06-07T23:29:30.593Z,6.07
2023-06-07T23:31:58.001Z,6.15
2023-06-07T23:34:25.908Z,6.13
2023-06-07T23:36:53.342Z,5.65
2023-06-07T23:39:20.795Z,5.57
2023-06-07T23:41:48.612Z,5.43
2023-06-07T23:44:17.501Z,6.18
2023-06-07T23:46:44.874Z,5.50
2023-06-07T23:49:14.014Z,7.13
2023-06-07T23:51:41.607Z,4.75
2023-06-07T23:54:09.453Z,6.13
2023-06-07T23:56:36.776Z,5.97
2023-06-07T23:59:04.168Z,5.75
